Time;durP1;ratioP1;P1;durP2;ratioP2;P2;SDS_P1;SDS_P2;PMS_P1;PMS_P2;Temp;Humidity;BMP_temperature;BMP_pressure;BME280_temperature;BME280_humidity;BME280_pressure;Samples;Min_cycle;Max_cycle;Signal;HPM_P1;HPM_P2
2022/11/12 00:00:57;;;;;;;118.22;11.82;;;;;;;2.93;100.00;95389.91;4860143;29;20063;-53
2022/11/12 00:03:25;;;;;;;125.80;8.77;;;;;;;2.92;100.00;95391.03;4876859;29;20602;-56
2022/11/12 00:05:52;;;;;;;160.30;10.03;;;;;;;2.98;100.00;95390.50;4859858;29;20568;-56
2022/11/12 00:08:19;;;;;;;109.70;11.50;;;;;;;2.96;100.00;95389.25;4877016;29;20049;-58
2022/11/12 00:10:46;;;;;;;207.07;13.85;;;;;;;2.89;100.00;95386.25;4876597;29;20398;-54
2022/11/12 00:13:13;;;;;;;61.00;8.93;;;;;;;2.94;100.00;95391.50;4877063;29;20763;-55
2022/11/12 00:15:40;;;;;;;114.25;11.15;;;;;;;2.82;100.00;95388.69;4876496;29;20053;-57
2022/11/12 00:18:07;;;;;;;85.87;9.27;;;;;;;2.80;100.00;95395.25;4877216;29;20438;-55
2022/11/12 00:20:34;;;;;;;101.70;9.73;;;;;;;2.90;100.00;95398.69;4859802;29;20116;-53
2022/11/12 00:23:01;;;;;;;177.75;10.15;;;;;;;2.82;100.00;95397.63;4860228;29;20072;-54
2022/11/12 00:25:27;;;;;;;130.75;8.35;;;;;;;2.78;100.00;95402.91;4875011;29;20057;-52
2022/11/12 00:28:04;;;;;;;81.25;7.10;;;;;;;2.75;100.00;95410.91;4876431;29;20045;-57
2022/11/12 00:30:31;;;;;;;100.57;7.53;;;;;;;2.76;100.00;95404.38;4848951;29;20483;-56
2022/11/12 00:33:01;;;;;;;103.78;7.88;;;;;;;2.63;100.00;95402.69;4875909;29;20045;-53
2022/11/12 00:35:31;;;;;;;38.85;7.30;;;;;;;2.70;100.00;95409.19;4876594;29;20112;-57
2022/11/12 00:37:57;;;;;;;39.40;6.70;;;;;;;2.80;100.00;95406.09;4876128;29;20106;-57
2022/11/12 00:40:24;;;;;;;58.42;6.60;;;;;;;2.83;100.00;95410.06;4880722;29;20084;-55
2022/11/12 00:42:51;;;;;;;88.50;7.20;;;;;;;2.78;100.00;95405.63;4876197;29;20052;-51
2022/11/12 00:45:19;;;;;;;102.93;7.50;;;;;;;2.69;100.00;95402.16;4876371;29;20049;-57
2022/11/12 00:47:46;;;;;;;58.42;7.32;;;;;;;2.65;100.00;95414.78;4875046;29;20049;-54
2022/11/12 00:50:14;;;;;;;59.80;7.38;;;;;;;2.71;100.00;95401.84;4882577;29;20045;-58
2022/11/12 00:52:41;;;;;;;77.25;7.13;;;;;;;2.67;100.00;95407.13;4875579;29;20536;-57
2022/11/12 00:55:08;;;;;;;155.43;10.37;;;;;;;2.55;100.00;95402.41;4876346;29;20071;-55
2022/11/12 00:57:35;;;;;;;62.17;7.10;;;;;;;2.59;100.00;95405.25;4875735;29;20064;-58
2022/11/12 01:00:04;;;;;;;34.72;8.05;;;;;;;2.57;100.00;95408.28;4859821;29;20088;-56
2022/11/12 01:02:31;;;;;;;46.78;7.90;;;;;;;2.65;100.00;95412.06;4875843;29;20048;-56
2022/11/12 01:05:04;;;;;;;51.88;6.97;;;;;;;2.70;100.00;95406.47;4875435;29;20803;-57
2022/11/12 01:07:31;;;;;;;75.23;6.53;;;;;;;2.71;100.00;95405.34;4876133;29;20053;-59
2022/11/12 01:09:57;;;;;;;69.60;6.47;;;;;;;2.74;100.00;95404.69;4874710;29;20092;-58
2022/11/12 01:12:24;;;;;;;88.93;8.73;;;;;;;2.72;100.00;95398.81;4875697;29;20401;-55
2022/11/12 01:14:51;;;;;;;62.75;6.03;;;;;;;2.71;100.00;95391.78;4875442;29;20051;-57
2022/11/12 01:17:18;;;;;;;43.28;6.13;;;;;;;2.55;100.00;95399.69;4875992;29;20120;-58
2022/11/12 01:19:44;;;;;;;46.77;6.13;;;;;;;2.55;100.00;95394.28;4875726;29;20108;-57
2022/11/12 01:22:11;;;;;;;48.22;5.63;;;;;;;2.53;100.00;95395.72;4874878;29;20049;-57
2022/11/12 01:24:38;;;;;;;65.47;6.65;;;;;;;2.48;100.00;95393.22;4873811;29;20072;-58
2022/11/12 01:27:05;;;;;;;100.80;7.90;;;;;;;2.50;100.00;95390.97;4876484;29;20518;-55
2022/11/12 01:29:31;;;;;;;48.35;8.27;;;;;;;2.47;100.00;95386.19;4876162;29;20053;-59
2022/11/12 01:31:58;;;;;;;55.60;8.80;;;;;;;2.44;100.00;95384.16;4874554;29;20067;-59
2022/11/12 01:34:25;;;;;;;65.65;12.52;;;;;;;2.52;100.00;95375.97;4875457;29;20458;-53
2022/11/12 01:36:52;;;;;;;182.82;9.70;;;;;;;2.40;100.00;95367.75;4875123;29;20059;-57
2022/11/12 01:39:19;;;;;;;108.03;6.45;;;;;;;2.22;100.00;95366.25;4863260;29;20044;-56
2022/11/12 01:41:45;;;;;;;83.80;6.35;;;;;;;2.16;100.00;95365.66;4862380;29;20479;-56
2022/11/12 01:44:14;;;;;;;161.13;7.20;;;;;;;2.03;100.00;95364.72;4875378;29;20057;-56
2022/11/12 01:47:02;;;;;;;104.35;6.60;;;;;;;2.09;100.00;95371.56;4874596;29;20235;-53
2022/11/12 01:49:40;;;;;;;117.15;6.47;;;;;;;1.92;100.00;95366.22;4875101;29;20045;-53
2022/11/12 01:52:35;;;;;;;88.75;7.97;;;;;;;1.95;100.00;95357.44;4874309;29;21617;-53
2022/11/12 01:55:06;;;;;;;82.25;6.20;;;;;;;1.87;100.00;95355.56;4874422;29;20272;-52
2022/11/12 01:57:47;;;;;;;99.80;6.13;;;;;;;1.90;100.00;95357.63;4858571;29;20043;-56
2022/11/12 02:00:15;;;;;;;102.13;6.30;;;;;;;1.95;100.00;95352.84;4874353;29;20681;-53
2022/11/12 02:02:48;;;;;;;103.93;6.50;;;;;;;1.80;100.00;95347.94;4857940;29;20049;-57
2022/11/12 02:05:17;;;;;;;85.75;6.15;;;;;;;1.69;100.00;95352.13;4875586;29;20049;-54
2022/11/12 02:07:45;;;;;;;63.42;5.93;;;;;;;1.68;100.00;95345.13;4857941;29;20065;-53
2022/11/12 02:10:13;;;;;;;90.77;6.00;;;;;;;1.67;100.00;95338.13;4875294;29;20045;-50
2022/11/12 02:15:25;;;;;;;90.15;6.45;;;;;;;1.70;100.00;95345.59;4857987;29;20060;-53
2022/11/12 02:17:52;;;;;;;108.55;7.45;;;;;;;1.71;100.00;95336.34;4874595;29;20143;-56
2022/11/12 02:20:19;;;;;;;59.83;5.43;;;;;;;1.70;100.00;95337.50;4873096;29;20052;-53
2022/11/12 02:22:46;;;;;;;47.07;5.40;;;;;;;1.75;100.00;95340.00;4864616;29;20684;-54
2022/11/12 02:25:19;;;;;;;48.60;4.95;;;;;;;1.78;100.00;95342.06;4874645;29;20057;-53
2022/11/12 02:27:50;;;;;;;47.28;5.35;;;;;;;1.57;100.00;95348.19;4874175;29;20048;-56
2022/11/12 02:30:19;;;;;;;61.67;5.28;;;;;;;1.74;100.00;95338.44;4874568;29;20056;-54
2022/11/12 02:32:46;;;;;;;25.83;6.15;;;;;;;1.81;100.00;95346.81;4857413;29;20044;-52
2022/11/12 02:35:12;;;;;;;72.27;6.67;;;;;;;1.79;100.00;95339.03;4858122;29;20547;-58
2022/11/12 02:37:39;;;;;;;93.68;6.60;;;;;;;1.70;100.00;95343.69;4873916;29;20060;-53
2022/11/12 02:40:06;;;;;;;83.55;6.30;;;;;;;1.75;100.00;95340.00;4870576;29;20049;-53
2022/11/12 02:42:33;;;;;;;101.95;6.80;;;;;;;1.74;100.00;95339.22;4873876;29;20061;-54
2022/11/12 02:44:59;;;;;;;78.75;6.15;;;;;;;1.70;100.00;95332.06;4857695;29;20129;-51
2022/11/12 02:47:26;;;;;;;65.83;5.73;;;;;;;1.58;100.00;95332.75;4874299;29;20045;-52
2022/11/12 02:49:53;;;;;;;38.80;5.28;;;;;;;1.55;100.00;95338.78;4873593;29;20092;-52
2022/11/12 02:52:19;;;;;;;93.18;5.88;;;;;;;1.45;100.00;95337.25;4874299;29;20053;-50
2022/11/12 02:54:46;;;;;;;98.35;5.80;;;;;;;1.40;100.00;95330.06;4873677;29;20053;-55
2022/11/12 02:57:13;;;;;;;87.45;6.32;;;;;;;1.47;100.00;95334.19;4874627;29;20414;-55
2022/11/12 02:59:39;;;;;;;155.20;7.50;;;;;;;1.49;100.00;95335.47;4839912;29;20049;-53
2022/11/12 03:02:06;;;;;;;60.33;5.20;;;;;;;1.58;100.00;95333.53;4842918;29;20041;-53
2022/11/12 03:04:32;;;;;;;79.97;5.97;;;;;;;1.51;100.00;95335.13;4857589;29;20053;-53
2022/11/12 03:06:59;;;;;;;115.47;6.85;;;;;;;1.36;100.00;95333.75;4873405;29;21677;-54
2022/11/12 03:09:26;;;;;;;35.38;5.25;;;;;;;1.49;100.00;95334.66;4857549;29;20045;-60
2022/11/12 03:11:53;;;;;;;40.83;4.93;;;;;;;1.45;100.00;95334.53;4874022;29;21547;-53
2022/11/12 03:14:19;;;;;;;30.25;4.78;;;;;;;1.40;100.00;95334.69;4857731;29;20060;-57
2022/11/12 03:16:46;;;;;;;53.17;4.63;;;;;;;1.39;100.00;95333.13;4873257;29;20486;-54
2022/11/12 03:19:13;;;;;;;13.05;4.63;;;;;;;1.45;100.00;95333.72;4874232;29;20048;-54
2022/11/12 03:21:39;;;;;;;30.05;5.15;;;;;;;1.55;100.00;95326.06;4873616;29;20049;-56
2022/11/12 03:24:06;;;;;;;44.27;5.67;;;;;;;1.49;100.00;95327.38;4874249;29;20052;-57
2022/11/12 03:26:33;;;;;;;16.52;4.55;;;;;;;1.46;100.00;95332.63;4857414;29;20041;-57
2022/11/12 03:29:01;;;;;;;11.45;4.45;;;;;;;1.50;100.00;95325.44;4861939;29;20097;-54
2022/11/12 03:31:28;;;;;;;16.65;4.50;;;;;;;1.61;100.00;95326.69;4855109;29;20057;-55
2022/11/12 03:33:55;;;;;;;12.32;4.75;;;;;;;1.55;100.00;95331.50;4865530;29;20266;-54
2022/11/12 03:36:21;;;;;;;13.57;4.50;;;;;;;1.52;100.00;95332.13;4873905;29;20049;-53
2022/11/12 03:38:48;;;;;;;19.05;5.18;;;;;;;1.51;100.00;95335.13;4873488;29;20091;-54
2022/11/12 03:41:15;;;;;;;11.45;4.10;;;;;;;1.47;100.00;95323.38;4881010;29;20060;-54
2022/11/12 03:43:41;;;;;;;9.73;4.22;;;;;;;1.40;100.00;95311.13;4873275;29;20047;-57
2022/11/12 03:46:08;;;;;;;10.80;4.22;;;;;;;1.34;100.00;95317.84;4873908;29;20108;-53
2022/11/12 03:48:34;;;;;;;9.23;3.80;;;;;;;1.32;100.00;95324.69;4856773;29;20427;-54
2022/11/12 03:51:01;;;;;;;9.93;4.18;;;;;;;1.33;100.00;95320.88;4870026;29;20049;-55
2022/11/12 03:53:28;;;;;;;11.05;4.05;;;;;;;1.26;100.00;95320.56;4854518;29;20116;-54
2022/11/12 03:55:54;;;;;;;11.23;4.05;;;;;;;1.22;100.00;95319.63;4873600;29;20049;-57
2022/11/12 03:58:21;;;;;;;18.27;4.07;;;;;;;1.13;100.00;95316.94;4857275;29;20498;-54
2022/11/12 04:00:48;;;;;;;17.23;4.03;;;;;;;1.09;100.00;95316.78;4872978;29;20093;-53
2022/11/12 04:03:15;;;;;;;26.45;4.28;;;;;;;1.10;100.00;95312.16;4860891;29;20064;-54
2022/11/12 04:08:36;;;;;;;17.85;4.00;;;;;;;1.08;100.00;95309.00;4877364;29;20111;-56
2022/11/12 04:11:06;;;;;;;12.90;3.75;;;;;;;1.02;100.00;95318.38;4876435;29;21786;-53
2022/11/12 04:13:33;;;;;;;25.83;4.77;;;;;;;0.98;100.00;95318.22;4876830;29;20057;-54
2022/11/12 04:21:50;;;;;;;8.15;3.75;;;;;;;0.93;100.00;95329.22;4876449;29;20056;-56
2022/11/12 04:27:14;;;;;;;7.55;3.50;;;;;;;0.91;100.00;95334.94;4876130;29;22118;-52
2022/11/12 04:32:27;;;;;;;13.45;3.83;;;;;;;0.89;100.00;95336.38;4877121;29;20063;-54
2022/11/12 04:34:55;;;;;;;11.32;3.95;;;;;;;0.88;100.00;95338.25;4875937;29;20056;-51
2022/11/12 04:37:23;;;;;;;8.73;3.67;;;;;;;0.88;100.00;95340.97;4876721;29;20059;-53
2022/11/12 04:39:51;;;;;;;9.27;3.87;;;;;;;0.86;100.00;95332.38;4881812;29;20048;-54
2022/11/12 04:45:08;;;;;;;10.80;3.42;;;;;;;0.79;100.00;95332.88;4875712;29;22390;-51
2022/11/12 04:47:39;;;;;;;14.10;4.05;;;;;;;0.83;100.00;95338.44;4875828;29;20053;-56
2022/11/12 04:50:13;;;;;;;15.32;6.07;;;;;;;0.83;100.00;95337.66;4876594;29;20052;-53
2022/11/12 04:52:40;;;;;;;10.57;4.03;;;;;;;0.76;100.00;95328.09;4875042;29;20065;-57
2022/11/12 04:55:07;;;;;;;11.27;4.07;;;;;;;0.71;100.00;95322.84;4876883;29;20045;-51
2022/11/12 04:57:35;;;;;;;11.65;4.30;;;;;;;0.71;100.00;95325.56;4859526;29;20068;-52
2022/11/12 05:00:03;;;;;;;17.05;4.22;;;;;;;0.69;100.00;95316.19;4876335;29;20053;-51
2022/11/12 05:02:30;;;;;;;14.60;4.90;;;;;;;0.66;100.00;95322.22;4876283;29;20421;-53
2022/11/12 05:04:56;;;;;;;22.77;5.03;;;;;;;0.63;100.00;95329.06;4875417;29;20100;-55
2022/11/12 05:07:23;;;;;;;33.90;5.40;;;;;;;0.68;100.00;95320.78;4876332;29;20045;-56
2022/11/12 05:09:50;;;;;;;46.13;7.30;;;;;;;0.67;100.00;95318.41;4858884;29;20100;-55
2022/11/12 05:12:16;;;;;;;25.70;5.43;;;;;;;0.55;100.00;95319.03;4875900;29;20053;-53
2022/11/12 05:14:43;;;;;;;36.53;5.40;;;;;;;0.51;100.00;95320.78;4875206;29;20132;-54
2022/11/12 05:17:10;;;;;;;41.13;4.87;;;;;;;0.49;100.00;95323.78;4859651;29;20053;-56
2022/11/12 05:19:36;;;;;;;34.63;5.97;;;;;;;0.45;100.00;95330.16;4875427;29;20041;-53
2022/11/12 05:22:06;;;;;;;28.10;4.80;;;;;;;0.50;100.00;95329.97;4876350;29;20045;-53
2022/11/12 05:24:41;;;;;;;18.10;4.38;;;;;;;0.43;100.00;95322.34;4875335;29;20462;-56
2022/11/12 05:27:19;;;;;;;10.82;4.63;;;;;;;0.47;100.00;95327.94;4875811;29;20087;-54
2022/11/12 05:29:46;;;;;;;7.53;3.50;;;;;;;0.53;100.00;95322.06;4875209;29;20053;-51
2022/11/12 05:32:15;;;;;;;8.93;3.63;;;;;;;0.56;100.00;95329.53;4875430;29;20053;-53
2022/11/12 05:34:41;;;;;;;12.02;3.63;;;;;;;0.66;100.00;95327.63;4874979;29;20045;-51
2022/11/12 05:37:10;;;;;;;17.02;4.05;;;;;;;0.64;100.00;95325.22;4875942;29;20061;-56
2022/11/12 05:39:37;;;;;;;17.08;4.00;;;;;;;0.56;100.00;95318.72;4875639;29;20045;-55
2022/11/12 05:42:04;;;;;;;12.90;4.00;;;;;;;0.59;100.00;95320.00;4875663;29;20057;-55
2022/11/12 05:44:39;;;;;;;10.50;4.10;;;;;;;0.55;100.00;95317.13;4874920;29;20041;-55
2022/11/12 05:47:05;;;;;;;24.70;4.65;;;;;;;0.53;100.00;95321.25;4875541;29;20053;-54
2022/11/12 05:49:32;;;;;;;31.98;5.32;;;;;;;0.57;100.00;95320.31;4859005;29;20057;-53
2022/11/12 05:51:59;;;;;;;29.70;5.72;;;;;;;0.59;100.00;95322.69;4873148;29;20684;-54
2022/11/12 05:54:25;;;;;;;19.30;4.60;;;;;;;0.58;100.00;95319.19;4875379;29;20427;-55
2022/11/12 05:56:52;;;;;;;14.68;4.30;;;;;;;0.51;100.00;95326.19;4875269;29;20084;-55
2022/11/12 05:59:19;;;;;;;16.40;4.18;;;;;;;0.48;100.00;95326.81;4875413;29;20041;-54
2022/11/12 06:01:46;;;;;;;35.83;4.15;;;;;;;0.42;100.00;95320.75;4874326;29;20041;-53
2022/11/12 06:04:13;;;;;;;9.02;3.90;;;;;;;0.42;100.00;95322.66;4875080;29;20053;-56
2022/11/12 06:06:41;;;;;;;15.03;3.97;;;;;;;0.35;100.00;95313.13;4874386;29;20053;-54
2022/11/12 06:09:08;;;;;;;15.70;4.43;;;;;;;0.38;100.00;95320.63;4875255;29;20053;-56
2022/11/12 06:11:36;;;;;;;15.75;5.65;;;;;;;0.40;100.00;95325.69;4842792;29;20052;-57
2022/11/12 06:14:03;;;;;;;24.27;4.50;;;;;;;0.33;100.00;95319.97;4875102;29;20051;-54
2022/11/12 06:16:31;;;;;;;31.83;4.78;;;;;;;0.32;100.00;95329.16;4874948;29;20637;-57
2022/11/12 06:18:58;;;;;;;26.50;4.90;;;;;;;0.32;100.00;95329.16;4874419;29;20100;-52
2022/11/12 06:21:26;;;;;;;21.83;6.22;;;;;;;0.37;100.00;95337.13;4874957;29;20049;-55
2022/11/12 06:23:58;;;;;;;21.20;6.50;;;;;;;0.37;100.00;95342.53;4873296;29;20566;-53
2022/11/12 06:26:28;;;;;;;50.17;20.45;;;;;;;0.43;100.00;95335.88;4875120;29;20061;-54
2022/11/12 06:28:55;;;;;;;30.20;14.20;;;;;;;0.44;100.00;95329.34;4857747;29;20041;-55
2022/11/12 06:31:22;;;;;;;36.40;12.17;;;;;;;0.47;100.00;95341.44;4874462;29;20052;-56
2022/11/12 06:33:50;;;;;;;48.92;10.50;;;;;;;0.46;100.00;95340.63;4873693;29;20388;-55
2022/11/12 06:36:18;;;;;;;43.95;10.95;;;;;;;0.44;100.00;95339.34;4874729;29;20566;-52
2022/11/12 06:38:46;;;;;;;19.42;5.80;;;;;;;0.50;100.00;95335.38;4873883;29;20041;-52
2022/11/12 06:41:13;;;;;;;16.98;6.03;;;;;;;0.45;100.00;95340.94;4863038;29;20056;-52
2022/11/12 06:43:40;;;;;;;18.33;7.37;;;;;;;0.49;100.00;95350.00;4873783;29;20130;-59
2022/11/12 06:46:12;;;;;;;29.92;13.38;;;;;;;0.58;100.00;95340.81;4874554;29;20068;-55
2022/11/12 06:48:39;;;;;;;9.10;4.43;;;;;;;0.69;100.00;95337.81;4873964;29;20631;-59
2022/11/12 06:51:18;;;;;;;12.65;6.07;;;;;;;0.74;100.00;95340.31;4857936;29;20053;-54
2022/11/12 06:53:46;;;;;;;10.90;4.40;;;;;;;0.78;100.00;95344.78;4857435;29;20079;-55
2022/11/12 06:56:13;;;;;;;10.10;4.27;;;;;;;0.82;100.00;95336.03;4874340;29;20053;-54
2022/11/12 06:58:40;;;;;;;12.93;4.25;;;;;;;0.80;100.00;95341.75;4856767;29;20055;-58
2022/11/12 07:01:16;;;;;;;11.00;5.07;;;;;;;0.76;100.00;95330.00;4874406;29;20057;-57
2022/11/12 07:03:44;;;;;;;15.65;6.85;;;;;;;0.82;100.00;95338.75;4857175;29;20104;-57
2022/11/12 07:06:19;;;;;;;14.77;6.60;;;;;;;0.79;100.00;95338.28;4874126;29;20116;-55
2022/11/12 07:08:48;;;;;;;12.27;4.93;;;;;;;0.90;100.00;95346.06;4873551;29;20049;-57
2022/11/12 07:11:15;;;;;;;13.18;4.65;;;;;;;0.98;100.00;95353.38;4873004;29;20045;-51
2022/11/12 07:13:46;;;;;;;15.25;6.63;;;;;;;1.00;100.00;95359.25;4874448;29;20048;-57
2022/11/12 07:16:17;;;;;;;9.70;4.07;;;;;;;1.07;100.00;95351.47;4874571;29;20056;-54
2022/11/12 07:18:45;;;;;;;11.68;5.55;;;;;;;1.11;100.00;95362.44;4873884;29;20049;-57
2022/11/12 07:21:14;;;;;;;12.00;3.60;;;;;;;1.19;100.00;95365.13;4861429;29;20415;-58
2022/11/12 07:23:41;;;;;;;14.07;3.97;;;;;;;1.34;100.00;95363.81;4873447;29;20071;-60
2022/11/12 07:26:28;;;;;;;9.13;3.92;;;;;;;1.44;100.00;95361.91;4873769;29;20145;-58
2022/11/12 07:28:55;;;;;;;8.25;3.75;;;;;;;1.70;100.00;95357.22;4873399;29;20052;-58
2022/11/12 07:31:22;;;;;;;12.80;7.78;;;;;;;1.69;100.00;95365.66;4873189;29;20071;-61
2022/11/12 07:33:49;;;;;;;13.33;4.37;;;;;;;1.94;100.00;95372.09;4872573;29;20112;-54
2022/11/12 07:36:18;;;;;;;19.23;5.38;;;;;;;1.92;100.00;95374.34;4860090;29;20067;-54
2022/11/12 07:38:45;;;;;;;16.05;6.13;;;;;;;1.93;100.00;95365.09;4877137;29;20049;-55
2022/11/12 07:41:13;;;;;;;20.77;5.32;;;;;;;1.95;100.00;95365.56;4884916;29;20052;-56
2022/11/12 07:43:41;;;;;;;19.48;4.70;;;;;;;2.06;100.00;95363.31;4876839;29;20176;-55
2022/11/12 07:46:29;;;;;;;25.37;4.80;;;;;;;1.91;100.00;95354.63;4877579;29;20049;-55
2022/11/12 07:48:56;;;;;;;23.38;7.72;;;;;;;2.03;100.00;95358.53;4876842;29;20049;-53
2022/11/12 07:51:25;;;;;;;15.73;5.07;;;;;;;1.98;100.00;95362.22;4877413;29;20104;-53
2022/11/12 07:53:53;;;;;;;12.90;5.72;;;;;;;1.98;100.00;95368.41;4876729;29;20077;-57
2022/11/12 07:56:26;;;;;;;16.45;5.32;;;;;;;2.13;100.00;95353.56;4877080;29;20049;-54
2022/11/12 07:58:53;;;;;;;16.23;5.30;;;;;;;2.36;100.00;95356.78;4876642;29;20696;-52
2022/11/12 08:01:36;;;;;;;10.23;3.33;;;;;;;2.50;100.00;95359.25;4877361;29;20068;-51
2022/11/12 08:04:06;;;;;;;16.65;4.55;;;;;;;2.89;100.00;95357.22;4876013;29;20096;-55
2022/11/12 08:06:33;;;;;;;19.73;3.80;;;;;;;2.88;100.00;95354.81;4876912;29;20051;-53
2022/11/12 08:09:03;;;;;;;21.48;4.43;;;;;;;2.91;100.00;95348.75;4875488;29;20732;-57
2022/11/12 08:11:30;;;;;;;21.50;4.60;;;;;;;3.18;100.00;95358.28;4877208;29;20057;-54
2022/11/12 08:13:57;;;;;;;23.70;3.92;;;;;;;3.82;100.00;95356.19;4875313;29;20068;-55
2022/11/12 08:16:24;;;;;;;19.48;6.68;;;;;;;4.14;100.00;95355.31;4875731;29;20045;-51
2022/11/12 08:18:50;;;;;;;21.70;6.13;;;;;;;4.45;99.76;95350.44;4875503;29;20045;-55
2022/11/12 08:21:18;;;;;;;22.05;4.40;;;;;;;4.68;97.28;95348.06;4876279;29;20053;-52
2022/11/12 08:23:45;;;;;;;20.93;3.83;;;;;;;4.44;99.00;95352.38;4873470;29;20538;-58
2022/11/12 08:26:14;;;;;;;21.75;4.13;;;;;;;4.29;97.37;95361.25;4876116;29;20041;-55
2022/11/12 08:28:41;;;;;;;14.15;3.80;;;;;;;4.02;98.78;95354.53;4875823;29;20060;-53
2022/11/12 08:31:10;;;;;;;11.98;3.40;;;;;;;3.98;98.44;95352.50;4875932;29;20590;-56
2022/11/12 08:33:37;;;;;;;10.82;3.60;;;;;;;4.13;98.29;95352.97;4876362;29;20053;-51
2022/11/12 08:36:07;;;;;;;14.83;3.70;;;;;;;4.14;98.39;95359.97;4876374;29;20057;-54
2022/11/12 08:38:34;;;;;;;10.93;3.75;;;;;;;4.45;97.24;95369.47;4876146;29;20065;-49
2022/11/12 08:41:02;;;;;;;10.23;3.47;;;;;;;4.93;95.94;95362.41;4884810;29;20520;-53
2022/11/12 08:43:29;;;;;;;14.88;2.95;;;;;;;5.62;93.76;95355.00;4869525;29;20065;-52
2022/11/12 08:46:00;;;;;;;12.60;2.97;;;;;;;6.09;90.05;95353.50;4875891;29;20041;-51
2022/11/12 08:48:28;;;;;;;9.40;3.40;;;;;;;5.83;87.97;95362.94;4875747;29;20104;-52
2022/11/12 08:50:56;;;;;;;7.20;3.83;;;;;;;5.74;90.42;95351.44;4875815;29;20561;-51
2022/11/12 08:53:24;;;;;;;7.68;3.28;;;;;;;5.78;90.83;95350.38;4876689;29;20055;-56
2022/11/12 08:55:55;;;;;;;11.35;3.85;;;;;;;6.42;86.95;95353.16;4875827;29;20368;-55
2022/11/12 08:58:23;;;;;;;11.15;3.80;;;;;;;6.54;85.33;95354.97;4876537;29;20060;-51
2022/11/12 09:00:51;;;;;;;6.97;3.87;;;;;;;5.62;89.41;95354.22;4875526;29;20053;-53
2022/11/12 09:03:21;;;;;;;12.05;5.00;;;;;;;5.79;89.51;95356.63;4876348;29;20134;-52
2022/11/12 09:05:48;;;;;;;15.38;4.60;;;;;;;5.96;87.72;95363.72;4875765;29;20510;-51
2022/11/12 09:08:17;;;;;;;11.82;3.97;;;;;;;6.09;88.65;95348.06;4875928;29;20049;-54
2022/11/12 09:10:44;;;;;;;8.40;3.50;;;;;;;5.87;87.77;95347.47;4875486;29;20037;-52
2022/11/12 09:13:12;;;;;;;7.43;3.73;;;;;;;5.64;89.31;95341.84;4876051;29;20392;-52
2022/11/12 09:15:39;;;;;;;7.13;3.90;;;;;;;6.12;89.23;95341.94;4875850;29;20495;-50
2022/11/12 09:18:11;;;;;;;9.80;4.38;;;;;;;5.85;89.13;95341.59;4876064;29;20045;-54
2022/11/12 09:20:37;;;;;;;10.10;4.00;;;;;;;6.75;84.23;95335.59;4875390;29;20059;-55
2022/11/12 09:23:10;;;;;;;12.30;4.35;;;;;;;6.50;85.49;95343.19;4875617;29;20388;-52
2022/11/12 09:25:37;;;;;;;7.13;3.93;;;;;;;8.15;79.25;95339.09;4875416;29;20052;-53
2022/11/12 09:28:13;;;;;;;9.40;4.70;;;;;;;9.71;72.28;95329.16;4875608;29;20041;-55
2022/11/12 09:30:45;;;;;;;8.27;4.43;;;;;;;10.10;70.43;95326.00;4875355;29;20055;-54
2022/11/12 09:33:13;;;;;;;7.00;3.97;;;;;;;10.85;66.45;95320.34;4875520;29;20479;-51
2022/11/12 09:35:40;;;;;;;8.35;4.70;;;;;;;10.47;66.92;95323.22;4875497;29;20044;-54
2022/11/12 09:38:07;;;;;;;13.27;5.40;;;;;;;9.70;70.01;95328.38;4875795;29;20049;-55
2022/11/12 09:41:17;;;;;;;8.25;4.40;;;;;;;10.54;67.34;95326.03;4889082;29;20049;-52
2022/11/12 09:43:50;;;;;;;6.20;3.70;;;;;;;10.08;68.92;95328.31;4886367;29;20140;-53
2022/11/12 09:46:38;;;;;;;6.70;3.65;;;;;;;10.78;67.27;95327.38;4894452;29;20052;-55
2022/11/12 09:49:09;;;;;;;6.22;3.55;;;;;;;11.14;65.74;95329.53;4893297;29;20405;-53
2022/11/12 09:51:41;;;;;;;8.43;4.00;;;;;;;9.73;69.26;95326.81;4894147;29;20506;-53
2022/11/12 09:54:22;;;;;;;7.50;4.53;;;;;;;8.95;73.07;95327.44;4894297;29;20111;-55
2022/11/12 09:56:49;;;;;;;8.07;4.22;;;;;;;10.09;69.19;95329.91;4893922;29;20108;-52
2022/11/12 09:59:16;;;;;;;9.05;3.97;;;;;;;10.54;67.68;95314.25;4894163;29;20059;-54
2022/11/12 10:01:58;;;;;;;7.72;3.97;;;;;;;11.23;66.24;95315.44;4893537;29;20044;-56
2022/11/12 10:04:30;;;;;;;6.40;3.80;;;;;;;11.25;65.44;95315.84;4893891;29;20049;-53
2022/11/12 10:07:18;;;;;;;6.95;3.60;;;;;;;11.78;63.67;95307.00;4893460;29;20045;-53
2022/11/12 10:09:57;;;;;;;6.85;3.58;;;;;;;12.08;62.35;95311.44;4893668;29;20526;-57
2022/11/12 10:12:53;;;;;;;5.80;3.40;;;;;;;11.87;63.42;95315.69;4894226;29;20449;-56
2022/11/12 10:18:53;;;;;;;5.93;3.70;;;;;;;11.67;64.16;95306.19;4892581;29;20630;-56
2022/11/12 10:21:35;;;;;;;5.90;3.55;;;;;;;12.33;62.53;95305.94;4877190;29;20063;-53
2022/11/12 10:24:06;;;;;;;5.35;3.35;;;;;;;13.61;59.12;95297.81;4892882;29;20697;-53
2022/11/12 10:26:33;;;;;;;5.88;3.30;;;;;;;13.30;60.19;95301.09;4893834;29;20056;-54
2022/11/12 10:29:06;;;;;;;5.72;3.40;;;;;;;13.05;61.03;95300.34;4892454;29;20195;-55
2022/11/12 10:31:33;;;;;;;5.20;3.10;;;;;;;13.24;61.03;95291.63;4893802;29;20057;-55
2022/11/12 10:34:13;;;;;;;5.50;3.70;;;;;;;12.92;62.31;95292.50;4860723;29;20865;-55
2022/11/12 10:37:04;;;;;;;6.97;3.47;;;;;;;13.29;60.77;95287.69;4893190;29;20084;-53
2022/11/12 10:39:43;;;;;;;6.15;3.40;;;;;;;13.36;60.69;95284.91;4888078;29;20052;-55
2022/11/12 10:42:12;;;;;;;5.13;3.35;;;;;;;14.26;58.81;95276.13;4873872;29;20422;-54
2022/11/12 10:44:42;;;;;;;5.37;3.30;;;;;;;13.85;59.83;95271.28;4874553;29;20053;-56
2022/11/12 10:47:40;;;;;;;5.68;3.58;;;;;;;13.51;60.17;95272.63;4874624;29;20112;-52
2022/11/12 10:50:07;;;;;;;7.57;3.92;;;;;;;12.98;62.16;95270.84;4857121;29;20045;-56
2022/11/12 10:52:34;;;;;;;8.25;4.60;;;;;;;12.71;63.47;95265.78;4874380;29;20051;-53
2022/11/12 10:55:17;;;;;;;5.80;3.80;;;;;;;13.08;61.95;95260.97;4874512;29;20049;-54
2022/11/12 10:57:43;;;;;;;6.17;3.97;;;;;;;12.35;64.92;95254.81;4874337;29;20053;-55
2022/11/12 11:00:17;;;;;;;6.90;4.30;;;;;;;12.36;65.35;95258.34;4874488;29;20063;-52
2022/11/12 11:02:52;;;;;;;6.55;4.00;;;;;;;12.48;65.53;95255.19;4874094;29;20045;-54
2022/11/12 11:05:35;;;;;;;6.75;4.05;;;;;;;12.38;65.59;95254.03;4874391;29;20061;-55
2022/11/12 11:08:04;;;;;;;7.43;4.40;;;;;;;12.70;65.39;95244.94;4873415;29;20614;-53
2022/11/12 11:10:35;;;;;;;7.73;4.67;;;;;;;13.07;63.68;95242.88;4877441;29;20072;-54
2022/11/12 11:13:21;;;;;;;7.72;4.60;;;;;;;12.67;65.12;95245.72;4879812;29;20414;-56
2022/11/12 11:16:02;;;;;;;7.20;4.25;;;;;;;12.87;63.91;95237.03;4880418;29;20057;-53
2022/11/12 11:18:32;;;;;;;7.53;4.65;;;;;;;12.89;64.68;95237.41;4880977;29;20124;-55
2022/11/12 11:21:14;;;;;;;10.27;6.03;;;;;;;12.48;66.85;95243.41;4879727;29;21200;-53
2022/11/12 11:23:59;;;;;;;9.73;6.40;;;;;;;12.61;66.30;95239.03;4880565;29;20503;-52
2022/11/12 11:26:41;;;;;;;9.35;5.75;;;;;;;12.55;66.80;95235.13;4881086;29;20554;-56
2022/11/12 11:29:29;;;;;;;8.52;5.03;;;;;;;12.51;66.98;95232.38;4879605;29;20387;-52
2022/11/12 11:32:07;;;;;;;9.98;4.93;;;;;;;13.06;64.70;95239.34;4888043;29;20053;-56
2022/11/12 11:34:45;;;;;;;8.32;5.10;;;;;;;12.57;66.42;95227.25;4899350;29;20490;-54
2022/11/12 11:37:26;;;;;;;10.17;6.40;;;;;;;12.09;68.43;95220.25;4899200;29;20060;-55
2022/11/12 11:40:25;;;;;;;10.57;6.30;;;;;;;12.13;68.88;95217.47;4907447;29;21761;-53
2022/11/12 11:42:58;;;;;;;8.93;5.22;;;;;;;12.01;69.34;95220.59;4917872;29;20111;-53
2022/11/12 11:45:36;;;;;;;9.30;5.55;;;;;;;11.72;70.80;95215.84;4904044;29;20057;-55
2022/11/12 11:48:05;;;;;;;9.63;5.20;;;;;;;11.72;72.01;95217.81;4898399;29;20098;-53
2022/11/12 11:50:51;;;;;;;9.47;5.27;;;;;;;11.67;71.67;95212.69;4899277;29;20404;-53
2022/11/12 11:53:25;;;;;;;10.90;5.80;;;;;;;11.83;70.93;95209.56;4897767;29;20104;-52
2022/11/12 11:55:55;;;;;;;7.43;4.82;;;;;;;11.58;72.10;95202.84;4898446;29;20051;-53
2022/11/12 11:58:28;;;;;;;8.45;4.85;;;;;;;11.33;73.17;95204.78;4898961;29;20053;-57
2022/11/12 12:01:07;;;;;;;8.27;4.78;;;;;;;11.05;73.50;95195.28;4898316;29;20049;-53
2022/11/12 12:03:51;;;;;;;9.13;5.23;;;;;;;11.12;74.88;95198.03;4898407;29;20096;-54